Time;durP1;ratioP1;P1;durP2;ratioP2;P2;SDS_P1;SDS_P2;PMS_P1;PMS_P2;Temp;Humidity;BMP_temperature;BMP_pressure;BME280_temperature;BME280_humidity;BME280_pressure;Samples;Min_cycle;Max_cycle;Signal;HPM_P1;HPM_P2
2023/08/05 00:00:28;;;;;;;8.75;4.20;;;;;;;;;;5113792;28;20123;-62
2023/08/05 00:02:54;;;;;;;7.68;4.65;;;;;;;;;;5113773;28;20043;-62
2023/08/05 00:05:20;;;;;;;7.07;4.70;;;;;;;;;;5114182;28;20764;-62
2023/08/05 00:07:46;;;;;;;10.55;4.63;;;;;;;;;;5108053;28;20049;-62
2023/08/05 00:10:12;;;;;;;6.57;4.53;;;;;;;;;;5093661;28;20169;-62
2023/08/05 00:12:39;;;;;;;7.45;4.60;;;;;;;;;;5093337;28;20066;-62
2023/08/05 00:15:05;;;;;;;7.43;4.50;;;;;;;;;;5093081;28;20052;-62
2023/08/05 00:17:31;;;;;;;11.13;4.80;;;;;;;;;;5093432;28;20410;-62
2023/08/05 00:19:57;;;;;;;9.00;4.90;;;;;;;;;;5093524;28;20040;-62
2023/08/05 00:22:23;;;;;;;9.15;5.03;;;;;;;;;;5092899;28;20040;-62
2023/08/05 00:24:49;;;;;;;7.75;4.10;;;;;;;;;;5093561;28;20059;-62
2023/08/05 00:27:15;;;;;;;7.82;4.40;;;;;;;;;;5112248;28;20035;-62
2023/08/05 00:29:41;;;;;;;9.85;4.57;;;;;;;;;;5113427;28;20039;-62
2023/08/05 00:32:07;;;;;;;9.70;4.40;;;;;;;;;;5112577;28;20397;-62
2023/08/05 00:34:34;;;;;;;8.48;4.50;;;;;;;;;;5113343;28;20046;-62
2023/08/05 00:37:00;;;;;;;8.77;4.50;;;;;;;;;;5112829;28;20079;-62
2023/08/05 00:39:26;;;;;;;8.48;4.28;;;;;;;;;;5113659;28;20089;-62
2023/08/05 00:41:52;;;;;;;8.23;4.30;;;;;;;;;;5113143;28;20058;-62
2023/08/05 00:44:18;;;;;;;7.60;4.07;;;;;;;;;;5112805;28;20047;-62
2023/08/05 00:46:44;;;;;;;6.90;4.90;;;;;;;;;;5113283;28;20039;-62
2023/08/05 00:49:11;;;;;;;7.53;3.75;;;;;;;;;;5113183;28;20045;-62
2023/08/05 00:51:37;;;;;;;6.18;4.25;;;;;;;;;;5112883;28;20587;-62
2023/08/05 00:54:04;;;;;;;7.53;4.00;;;;;;;;;;5113069;28;20397;-62
2023/08/05 00:56:30;;;;;;;8.05;4.03;;;;;;;;;;5112933;28;20462;-62
2023/08/05 00:58:56;;;;;;;6.57;3.72;;;;;;;;;;5112718;28;20630;-62
2023/08/05 01:01:22;;;;;;;7.88;3.80;;;;;;;;;;5112784;28;20100;-62
2023/08/05 01:03:49;;;;;;;7.50;4.28;;;;;;;;;;5146177;27;20474;-62
2023/08/05 01:06:15;;;;;;;8.90;4.22;;;;;;;;;;5112242;28;20104;-62
2023/08/05 01:08:42;;;;;;;6.63;4.15;;;;;;;;;;5112882;28;20047;-62
2023/08/05 01:11:09;;;;;;;5.93;4.15;;;;;;;;;;5112818;28;20075;-62
2023/08/05 01:13:35;;;;;;;7.32;4.05;;;;;;;;;;5111685;28;20051;-62
2023/08/05 01:16:01;;;;;;;8.70;4.18;;;;;;;;;;5112620;28;20494;-62
2023/08/05 01:18:28;;;;;;;6.18;4.10;;;;;;;;;;5112685;28;20039;-62
2023/08/05 01:20:54;;;;;;;10.98;5.07;;;;;;;;;;5112273;28;20485;-62
2023/08/05 01:23:26;;;;;;;7.13;4.15;;;;;;;;;;5112544;28;20040;-62
2023/08/05 01:25:52;;;;;;;9.35;4.28;;;;;;;;;;5112535;28;20088;-62
2023/08/05 01:28:19;;;;;;;6.40;3.92;;;;;;;;;;5112155;28;20361;-62
2023/08/05 01:30:45;;;;;;;8.73;3.72;;;;;;;;;;5112472;28;20039;-62
2023/08/05 01:33:12;;;;;;;8.15;4.35;;;;;;;;;;5112308;28;20047;-62
2023/08/05 01:35:38;;;;;;;7.25;3.95;;;;;;;;;;5111790;28;20075;-62
2023/08/05 01:38:04;;;;;;;8.65;4.07;;;;;;;;;;5112104;28;20085;-62
2023/08/05 01:40:30;;;;;;;12.25;5.07;;;;;;;;;;5112257;28;20031;-62
2023/08/05 01:42:57;;;;;;;7.40;4.25;;;;;;;;;;5111218;28;20042;-62
2023/08/05 01:45:23;;;;;;;11.15;4.40;;;;;;;;;;5145443;27;20039;-62
2023/08/05 01:47:49;;;;;;;8.00;4.30;;;;;;;;;;5112004;28;20054;-62
2023/08/05 01:50:15;;;;;;;7.65;4.90;;;;;;;;;;5111520;28;20035;-62
2023/08/05 01:52:41;;;;;;;9.60;4.82;;;;;;;;;;5111725;28;20097;-62
2023/08/05 01:55:07;;;;;;;7.97;4.35;;;;;;;;;;5111698;28;20048;-62
2023/08/05 01:57:33;;;;;;;9.10;4.85;;;;;;;;;;5111162;28;20085;-62
2023/08/05 01:59:59;;;;;;;11.68;4.85;;;;;;;;;;5111862;28;20070;-62
2023/08/05 02:02:25;;;;;;;7.30;4.35;;;;;;;;;;5111719;28;20043;-62
2023/08/05 02:04:51;;;;;;;7.65;4.38;;;;;;;;;;5111501;28;20036;-62
2023/08/05 02:07:17;;;;;;;5.90;3.67;;;;;;;;;;5111424;28;20099;-62
2023/08/05 02:09:44;;;;;;;7.85;3.72;;;;;;;;;;5111942;28;20039;-62
2023/08/05 02:12:10;;;;;;;7.00;4.28;;;;;;;;;;5110949;28;20047;-62
2023/08/05 02:14:36;;;;;;;7.35;4.13;;;;;;;;;;5111464;28;20040;-62
2023/08/05 02:17:02;;;;;;;7.85;4.38;;;;;;;;;;5111626;28;20039;-62
2023/08/05 02:19:28;;;;;;;6.25;3.75;;;;;;;;;;5111006;28;20610;-62
2023/08/05 02:21:54;;;;;;;8.82;4.00;;;;;;;;;;5111612;28;20038;-62
2023/08/05 02:24:20;;;;;;;6.55;3.72;;;;;;;;;;5111476;28;20039;-63
2023/08/05 02:26:46;;;;;;;6.45;4.03;;;;;;;;;;5111057;28;20039;-63
2023/08/05 02:29:12;;;;;;;7.03;4.10;;;;;;;;;;5111572;28;20051;-63
2023/08/05 02:31:38;;;;;;;6.75;3.50;;;;;;;;;;5111387;28;20050;-63
2023/08/05 02:34:04;;;;;;;5.65;3.55;;;;;;;;;;5110897;28;20060;-63
2023/08/05 02:36:30;;;;;;;5.93;4.22;;;;;;;;;;5111199;28;20039;-62
2023/08/05 02:38:56;;;;;;;5.38;3.55;;;;;;;;;;5111430;28;20036;-62
2023/08/05 02:41:22;;;;;;;6.65;3.88;;;;;;;;;;5110825;28;20065;-62
2023/08/05 02:43:48;;;;;;;9.85;4.07;;;;;;;;;;5111301;28;20044;-62
2023/08/05 02:46:14;;;;;;;5.75;3.55;;;;;;;;;;5111203;28;20052;-62
2023/08/05 02:48:40;;;;;;;7.18;3.65;;;;;;;;;;5110744;28;20362;-62
2023/08/05 02:51:06;;;;;;;6.45;4.10;;;;;;;;;;5111190;28;20064;-62
2023/08/05 02:53:32;;;;;;;4.80;3.85;;;;;;;;;;5111069;28;20470;-62
2023/08/05 02:55:58;;;;;;;7.40;3.80;;;;;;;;;;5114065;28;20046;-62
2023/08/05 02:58:25;;;;;;;7.03;4.00;;;;;;;;;;5115185;28;20039;-62
2023/08/05 03:00:51;;;;;;;6.45;4.13;;;;;;;;;;5115435;28;20063;-62
2023/08/05 03:03:17;;;;;;;11.73;3.80;;;;;;;;;;5115222;28;20046;-62
2023/08/05 03:05:43;;;;;;;7.60;4.30;;;;;;;;;;5114979;28;20059;-62
2023/08/05 03:08:10;;;;;;;5.15;4.10;;;;;;;;;;5142833;27;20043;-62
2023/08/05 03:10:37;;;;;;;6.75;4.75;;;;;;;;;;5115205;28;20462;-62
2023/08/05 03:13:03;;;;;;;7.78;4.45;;;;;;;;;;5113093;28;20139;-62
2023/08/05 03:15:29;;;;;;;9.50;4.63;;;;;;;;;;5114944;28;20056;-62
2023/08/05 03:17:55;;;;;;;6.93;4.40;;;;;;;;;;5115264;28;20481;-62
2023/08/05 03:20:26;;;;;;;7.40;4.35;;;;;;;;;;5114639;28;20046;-62
2023/08/05 03:22:55;;;;;;;7.18;4.43;;;;;;;;;;5114702;28;20036;-62
2023/08/05 03:25:22;;;;;;;7.28;4.80;;;;;;;;;;5114923;28;20048;-62
2023/08/05 03:27:49;;;;;;;6.40;4.88;;;;;;;;;;5114582;28;20769;-62
2023/08/05 03:30:15;;;;;;;7.55;4.60;;;;;;;;;;5114774;28;20031;-62
2023/08/05 03:32:41;;;;;;;6.88;4.68;;;;;;;;;;5114693;28;20154;-62
2023/08/05 03:35:07;;;;;;;9.57;5.20;;;;;;;;;;5114158;28;20160;-62
2023/08/05 03:37:33;;;;;;;8.32;4.93;;;;;;;;;;5114646;28;20050;-62
2023/08/05 03:39:59;;;;;;;8.93;5.18;;;;;;;;;;5114570;28;20040;-62
2023/08/05 03:42:25;;;;;;;8.82;5.10;;;;;;;;;;5114325;28;20092;-62
2023/08/05 03:44:52;;;;;;;7.93;5.75;;;;;;;;;;5114639;28;20115;-62
2023/08/05 03:47:20;;;;;;;8.52;5.43;;;;;;;;;;5114558;28;20047;-62
2023/08/05 03:49:46;;;;;;;9.40;5.55;;;;;;;;;;5114210;28;20044;-62
2023/08/05 03:52:12;;;;;;;6.40;4.82;;;;;;;;;;5114454;28;20053;-62
2023/08/05 03:54:38;;;;;;;6.93;4.47;;;;;;;;;;5147681;27;20036;-62
2023/08/05 03:57:08;;;;;;;7.50;5.15;;;;;;;;;;5113978;28;20477;-62
2023/08/05 03:59:34;;;;;;;7.93;5.47;;;;;;;;;;5114289;28;20115;-62
2023/08/05 04:02:00;;;;;;;13.63;5.45;;;;;;;;;;5114495;28;20055;-62
2023/08/05 04:04:26;;;;;;;7.25;4.90;;;;;;;;;;5113900;28;20036;-62
2023/08/05 04:06:52;;;;;;;7.25;4.63;;;;;;;;;;5114066;28;20059;-62
2023/08/05 04:09:20;;;;;;;7.22;5.15;;;;;;;;;;5114072;28;20059;-62
2023/08/05 04:11:48;;;;;;;9.52;5.80;;;;;;;;;;5113534;28;20401;-62
2023/08/05 04:14:17;;;;;;;10.90;5.97;;;;;;;;;;5113810;28;20043;-62
2023/08/05 04:16:43;;;;;;;11.25;5.68;;;;;;;;;;5113871;28;20048;-62
2023/08/05 04:19:09;;;;;;;11.00;6.18;;;;;;;;;;5111727;28;20180;-62
2023/08/05 04:21:39;;;;;;;10.65;5.45;;;;;;;;;;5113917;28;20505;-62
2023/08/05 04:24:09;;;;;;;11.90;5.93;;;;;;;;;;5113422;28;20054;-62
2023/08/05 04:26:35;;;;;;;10.02;6.38;;;;;;;;;;5113134;28;20085;-62
2023/08/05 04:29:02;;;;;;;8.77;5.85;;;;;;;;;;5113901;28;20506;-62
2023/08/05 04:31:28;;;;;;;14.20;6.53;;;;;;;;;;5113626;28;20394;-62
2023/08/05 04:33:54;;;;;;;11.93;5.95;;;;;;;;;;5113147;28;20470;-62
2023/08/05 04:36:20;;;;;;;8.65;6.03;;;;;;;;;;5113319;28;20043;-62
2023/08/05 04:38:46;;;;;;;8.63;5.93;;;;;;;;;;5113505;28;20043;-62
2023/08/05 04:41:12;;;;;;;10.57;5.80;;;;;;;;;;5112940;28;20074;-62
2023/08/05 04:43:38;;;;;;;10.30;5.60;;;;;;;;;;5113392;28;20035;-62
2023/08/05 04:46:04;;;;;;;7.30;5.50;;;;;;;;;;5113409;28;20039;-62
2023/08/05 04:48:30;;;;;;;9.77;5.45;;;;;;;;;;5113071;28;20656;-62
2023/08/05 04:50:56;;;;;;;10.07;6.05;;;;;;;;;;5113166;28;20054;-62
2023/08/05 04:53:22;;;;;;;8.95;6.40;;;;;;;;;;5113352;28;20039;-62
2023/08/05 04:55:48;;;;;;;9.43;6.30;;;;;;;;;;5112828;28;20093;-62
2023/08/05 04:58:14;;;;;;;8.70;6.50;;;;;;;;;;5113270;28;20397;-62
2023/08/05 05:00:40;;;;;;;8.48;5.43;;;;;;;;;;5113153;28;20028;-62
2023/08/05 05:03:07;;;;;;;11.40;6.25;;;;;;;;;;5112588;28;20436;-62
2023/08/05 05:05:34;;;;;;;7.40;5.80;;;;;;;;;;5113038;28;20051;-62
2023/08/05 05:08:00;;;;;;;10.70;6.95;;;;;;;;;;5105336;28;20119;-62
2023/08/05 05:10:26;;;;;;;8.82;5.88;;;;;;;;;;5092326;28;20055;-62
2023/08/05 05:12:52;;;;;;;10.32;5.78;;;;;;;;;;5092251;28;20055;-62
2023/08/05 05:15:21;;;;;;;9.25;5.85;;;;;;;;;;5125038;27;20051;-62
2023/08/05 05:17:50;;;;;;;9.32;6.15;;;;;;;;;;5091614;28;20050;-62
2023/08/05 05:20:16;;;;;;;6.75;5.95;;;;;;;;;;5092148;28;20051;-62
2023/08/05 05:22:42;;;;;;;13.05;5.60;;;;;;;;;;5092264;28;20126;-62
2023/08/05 05:25:08;;;;;;;8.88;5.32;;;;;;;;;;5092565;28;20518;-62
2023/08/05 05:27:34;;;;;;;8.27;5.22;;;;;;;;;;5112516;28;20087;-62
2023/08/05 05:30:01;;;;;;;11.48;5.00;;;;;;;;;;5112586;28;20039;-62
2023/08/05 05:32:27;;;;;;;10.73;5.65;;;;;;;;;;5145239;27;20075;-62
2023/08/05 05:34:53;;;;;;;8.80;5.40;;;;;;;;;;5112381;28;20091;-62
2023/08/05 05:37:19;;;;;;;8.68;4.80;;;;;;;;;;5112275;28;20465;-62
2023/08/05 05:39:45;;;;;;;6.28;4.90;;;;;;;;;;5111764;28;20035;-62
2023/08/05 05:42:11;;;;;;;8.68;4.60;;;;;;;;;;5111734;28;20055;-62
2023/08/05 05:44:40;;;;;;;7.53;4.93;;;;;;;;;;5112225;28;20436;-62
2023/08/05 05:47:07;;;;;;;8.50;5.28;;;;;;;;;;5111738;28;20116;-62
2023/08/05 05:49:34;;;;;;;12.48;5.90;;;;;;;;;;5112045;28;20044;-62
2023/08/05 05:52:00;;;;;;;9.98;5.22;;;;;;;;;;5112103;28;20490;-62
2023/08/05 05:54:26;;;;;;;10.13;5.47;;;;;;;;;;5111630;28;20040;-62
2023/08/05 05:56:52;;;;;;;8.90;5.55;;;;;;;;;;5111894;28;20079;-62
2023/08/05 05:59:18;;;;;;;10.05;5.47;;;;;;;;;;5111932;28;20038;-62
2023/08/05 06:01:44;;;;;;;8.13;5.28;;;;;;;;;;5111516;28;20039;-62
2023/08/05 06:04:10;;;;;;;8.15;4.40;;;;;;;;;;5111759;28;20123;-62
2023/08/05 06:06:36;;;;;;;6.88;3.92;;;;;;;;;;5111687;28;20047;-62
2023/08/05 06:09:03;;;;;;;6.95;4.13;;;;;;;;;;5094887;28;20040;-62
2023/08/05 06:11:32;;;;;;;10.52;4.50;;;;;;;;;;5091185;28;20117;-62
2023/08/05 06:13:58;;;;;;;7.80;4.65;;;;;;;;;;5091360;28;20482;-62
2023/08/05 06:16:24;;;;;;;8.57;4.63;;;;;;;;;;5090852;28;20339;-62
2023/08/05 06:18:50;;;;;;;5.75;4.38;;;;;;;;;;5091372;28;20824;-62
2023/08/05 06:21:16;;;;;;;8.40;4.22;;;;;;;;;;5090027;28;20044;-62
2023/08/05 06:23:42;;;;;;;6.63;3.72;;;;;;;;;;5090834;28;20043;-62
2023/08/05 06:26:09;;;;;;;7.22;4.00;;;;;;;;;;5100729;28;20043;-62
2023/08/05 06:28:35;;;;;;;7.05;3.90;;;;;;;;;;5111345;28;20047;-62
2023/08/05 06:31:01;;;;;;;8.77;4.13;;;;;;;;;;5110397;28;20508;-62
2023/08/05 06:33:27;;;;;;;8.35;4.03;;;;;;;;;;5111399;28;20043;-62
2023/08/05 06:35:53;;;;;;;7.32;4.00;;;;;;;;;;5111184;28;20051;-62
2023/08/05 06:38:19;;;;;;;6.93;2.95;;;;;;;;;;5110935;28;20123;-62
2023/08/05 06:40:46;;;;;;;6.78;3.17;;;;;;;;;;5111340;28;20114;-62
2023/08/05 06:43:12;;;;;;;6.88;3.30;;;;;;;;;;5111088;28;20075;-62
2023/08/05 06:45:38;;;;;;;6.82;3.10;;;;;;;;;;5110859;28;20082;-62
2023/08/05 06:48:04;;;;;;;6.72;3.70;;;;;;;;;;5111227;28;20493;-62
2023/08/05 06:50:30;;;;;;;6.85;3.08;;;;;;;;;;5111344;28;20050;-62
2023/08/05 06:52:56;;;;;;;5.45;3.17;;;;;;;;;;5110886;28;20366;-62
2023/08/05 06:55:22;;;;;;;6.82;3.15;;;;;;;;;;5111069;28;20086;-62
2023/08/05 06:57:48;;;;;;;5.47;3.63;;;;;;;;;;5111084;28;20391;-62
2023/08/05 07:00:15;;;;;;;8.60;3.88;;;;;;;;;;5110589;28;20469;-62
2023/08/05 07:02:41;;;;;;;8.23;4.05;;;;;;;;;;5110793;28;20095;-62
2023/08/05 07:05:07;;;;;;;9.43;3.85;;;;;;;;;;5111091;28;20043;-62
2023/08/05 07:07:33;;;;;;;7.93;3.85;;;;;;;;;;5110592;28;20062;-62
2023/08/05 07:10:03;;;;;;;8.32;4.00;;;;;;;;;;5110865;28;20054;-62
2023/08/05 07:12:29;;;;;;;8.80;3.85;;;;;;;;;;5110710;28;20527;-62
2023/08/05 07:14:55;;;;;;;7.50;3.65;;;;;;;;;;5110507;28;20120;-62
2023/08/05 07:17:22;;;;;;;10.02;3.25;;;;;;;;;;5110701;28;20040;-62
2023/08/05 07:19:48;;;;;;;6.07;3.67;;;;;;;;;;5111069;28;20035;-62
2023/08/05 07:22:14;;;;;;;8.70;3.90;;;;;;;;;;5110852;28;20359;-62
2023/08/05 07:24:40;;;;;;;8.00;3.80;;;;;;;;;;5110608;28;20043;-62
2023/08/05 07:27:07;;;;;;;10.63;4.20;;;;;;;;;;5110760;28;20036;-62
2023/08/05 07:29:33;;;;;;;7.78;3.25;;;;;;;;;;5110779;28;20130;-62
2023/08/05 07:31:59;;;;;;;5.28;3.20;;;;;;;;;;5110631;28;20482;-62
2023/08/05 07:34:30;;;;;;;10.25;3.60;;;;;;;;;;5110690;28;20384;-62
2023/08/05 07:36:56;;;;;;;9.40;4.47;;;;;;;;;;5110760;28;20082;-62
2023/08/05 07:39:23;;;;;;;10.52;3.78;;;;;;;;;;5110520;28;20032;-62
2023/08/05 07:41:49;;;;;;;8.07;3.88;;;;;;;;;;5112782;28;20043;-62
2023/08/05 07:44:15;;;;;;;7.63;3.80;;;;;;;;;;5114367;28;20058;-62
2023/08/05 07:46:41;;;;;;;8.48;3.70;;;;;;;;;;5114096;28;20043;-62
2023/08/05 07:49:07;;;;;;;8.75;3.75;;;;;;;;;;5114499;28;20062;-62
2023/08/05 07:51:34;;;;;;;7.22;4.38;;;;;;;;;;5114494;28;20043;-62
2023/08/05 07:54:00;;;;;;;8.82;3.72;;;;;;;;;;5114073;28;20047;-62
2023/08/05 07:56:26;;;;;;;7.63;3.67;;;;;;;;;;5114369;28;20046;-62
2023/08/05 07:58:52;;;;;;;6.38;3.67;;;;;;;;;;5114349;28;20081;-62
2023/08/05 08:01:22;;;;;;;7.97;5.00;;;;;;;;;;5113988;28;20132;-62
2023/08/05 08:03:51;;;;;;;7.85;3.35;;;;;;;;;;5114110;28;20084;-62
2023/08/05 08:06:18;;;;;;;7.72;3.38;;;;;;;;;;5113978;28;20039;-62
2023/08/05 08:08:44;;;;;;;6.78;3.22;;;;;;;;;;5099902;28;20474;-62
2023/08/05 08:11:10;;;;;;;8.65;4.47;;;;;;;;;;5093733;28;20105;-62
2023/08/05 08:13:37;;;;;;;7.03;4.75;;;;;;;;;;5093177;28;20060;-62
2023/08/05 08:16:03;;;;;;;7.32;3.03;;;;;;;;;;5093256;28;20132;-63
2023/08/05 08:18:29;;;;;;;6.43;3.67;;;;;;;;;;5093642;28;20122;-63
2023/08/05 08:20:55;;;;;;;6.47;2.95;;;;;;;;;;5093510;28;20501;-63
2023/08/05 08:23:21;;;;;;;7.25;3.00;;;;;;;;;;5093044;28;20085;-63
2023/08/05 08:25:48;;;;;;;7.47;3.58;;;;;;;;;;5099658;28;20079;-62
2023/08/05 08:28:14;;;;;;;5.47;2.95;;;;;;;;;;5113665;28;20426;-62
2023/08/05 08:30:40;;;;;;;12.23;3.35;;;;;;;;;;5113350;28;20101;-62
2023/08/05 08:33:06;;;;;;;5.40;3.08;;;;;;;;;;5113368;28;20058;-62
2023/08/05 08:35:32;;;;;;;7.05;2.97;;;;;;;;;;5113345;28;20035;-62
2023/08/05 08:37:58;;;;;;;3.90;2.63;;;;;;;;;;5113127;28;20482;-63
2023/08/05 08:40:24;;;;;;;6.47;2.97;;;;;;;;;;5113429;28;20071;-62
2023/08/05 08:42:50;;;;;;;5.03;2.80;;;;;;;;;;5113435;28;20040;-62
2023/08/05 08:45:18;;;;;;;5.65;3.00;;;;;;;;;;5113112;28;20043;-62
2023/08/05 08:47:46;;;;;;;5.25;3.22;;;;;;;;;;5113295;28;20040;-62
2023/08/05 08:50:12;;;;;;;3.97;2.65;;;;;;;;;;5113437;28;20067;-63
2023/08/05 08:52:41;;;;;;;8.25;3.22;;;;;;;;;;5111941;28;20669;-63
2023/08/05 08:55:08;;;;;;;4.43;2.72;;;;;;;;;;5113022;28;20039;-63
2023/08/05 08:57:34;;;;;;;4.70;2.30;;;;;;;;;;5113185;28;20172;-63
2023/08/05 09:00:01;;;;;;;6.60;2.88;;;;;;;;;;5111282;28;20047;-63
2023/08/05 09:02:27;;;;;;;7.93;2.78;;;;;;;;;;5113132;28;20432;-63
2023/08/05 09:04:54;;;;;;;3.78;2.42;;;;;;;;;;5113100;28;20039;-63
2023/08/05 09:07:26;;;;;;;3.45;2.17;;;;;;;;;;5112244;28;20039;-63
2023/08/05 09:09:53;;;;;;;4.60;2.42;;;;;;;;;;5112949;28;20040;-63
2023/08/05 09:12:19;;;;;;;6.60;2.53;;;;;;;;;;5112619;28;20071;-63
2023/08/05 09:14:45;;;;;;;3.10;2.13;;;;;;;;;;5112496;28;20564;-63
2023/08/05 09:17:16;;;;;;;4.57;2.45;;;;;;;;;;5112692;28;20118;-63
2023/08/05 09:19:45;;;;;;;5.88;2.20;;;;;;;;;;5112687;28;20050;-62
2023/08/05 09:22:11;;;;;;;5.45;2.50;;;;;;;;;;5112384;28;20462;-62
2023/08/05 09:24:37;;;;;;;4.90;2.13;;;;;;;;;;5112151;28;20036;-62
2023/08/05 09:27:03;;;;;;;5.53;2.15;;;;;;;;;;5112156;28;20075;-62
2023/08/05 09:29:29;;;;;;;4.85;2.25;;;;;;;;;;5112211;28;20104;-62
2023/08/05 09:31:55;;;;;;;3.88;2.13;;;;;;;;;;5111128;28;20067;-62
2023/08/05 09:34:22;;;;;;;5.32;2.10;;;;;;;;;;5112289;28;20043;-62
2023/08/05 09:36:48;;;;;;;5.45;2.38;;;;;;;;;;5111764;28;20040;-62
2023/08/05 09:39:16;;;;;;;5.20;2.40;;;;;;;;;;5112647;28;20074;-62
2023/08/05 09:41:51;;;;;;;4.70;1.92;;;;;;;;;;5112620;28;20040;-62
2023/08/05 09:44:18;;;;;;;6.57;2.25;;;;;;;;;;5112093;28;20043;-63
2023/08/05 09:46:46;;;;;;;5.47;2.30;;;;;;;;;;5112296;28;20086;-63
2023/08/05 09:49:17;;;;;;;4.70;2.15;;;;;;;;;;5111980;28;20040;-63
2023/08/05 09:51:45;;;;;;;4.00;2.28;;;;;;;;;;5111912;28;20051;-63
2023/08/05 09:54:16;;;;;;;3.95;2.20;;;;;;;;;;5111997;28;20639;-63
2023/08/05 09:56:43;;;;;;;5.38;2.30;;;;;;;;;;5111940;28;20383;-63
2023/08/05 09:59:12;;;;;;;4.90;2.40;;;;;;;;;;5111316;28;20094;-63
2023/08/05 10:01:39;;;;;;;3.22;2.42;;;;;;;;;;5112088;28;20043;-63
2023/08/05 10:04:05;;;;;;;2.65;2.00;;;;;;;;;;5111298;28;20039;-63
2023/08/05 10:06:31;;;;;;;3.80;1.83;;;;;;;;;;5111279;28;20496;-63
2023/08/05 10:08:58;;;;;;;2.38;2.00;;;;;;;;;;5096271;28;20040;-63
2023/08/05 10:11:24;;;;;;;3.28;2.13;;;;;;;;;;5091249;28;20043;-63
2023/08/05 10:13:53;;;;;;;2.90;1.90;;;;;;;;;;5091129;28;20052;-63
2023/08/05 10:16:19;;;;;;;4.55;1.90;;;;;;;;;;5091367;28;20044;-63
2023/08/05 10:18:46;;;;;;;5.63;2.25;;;;;;;;;;5091302;28;20036;-63
2023/08/05 10:21:12;;;;;;;3.92;2.00;;;;;;;;;;5090884;28;20383;-63
2023/08/05 10:23:38;;;;;;;4.15;2.40;;;;;;;;;;5091381;28;20032;-63
2023/08/05 10:26:05;;;;;;;3.83;1.75;;;;;;;;;;5099643;28;20036;-63
2023/08/05 10:28:34;;;;;;;4.90;2.50;;;;;;;;;;5111147;28;20062;-63
2023/08/05 10:31:03;;;;;;;5.03;2.47;;;;;;;;;;5111415;28;20042;-63
2023/08/05 10:33:29;;;;;;;2.90;1.95;;;;;;;;;;5111157;28;20070;-63
2023/08/05 10:36:08;;;;;;;6.35;1.90;;;;;;;;;;5110784;28;20075;-63
2023/08/05 10:38:43;;;;;;;3.47;2.78;;;;;;;;;;5111265;28;20074;-63
2023/08/05 10:41:10;;;;;;;3.35;2.20;;;;;;;;;;5111046;28;20035;-63
2023/08/05 10:43:38;;;;;;;5.72;2.30;;;;;;;;;;5110774;28;20035;-63
2023/08/05 10:46:06;;;;;;;5.38;2.58;;;;;;;;;;5110801;28;20075;-63
2023/08/05 10:48:39;;;;;;;6.00;2.63;;;;;;;;;;5111129;28;20039;-63
2023/08/05 10:51:18;;;;;;;4.35;2.50;;;;;;;;;;5110805;28;20114;-63
2023/08/05 10:53:45;;;;;;;3.65;2.10;;;;;;;;;;5111053;28;20478;-63
2023/08/05 10:56:12;;;;;;;5.00;2.30;;;;;;;;;;5110997;28;20044;-63
2023/08/05 10:58:43;;;;;;;4.43;2.53;;;;;;;;;;5109388;28;20036;-63
2023/08/05 11:01:09;;;;;;;3.95;2.70;;;;;;;;;;5111227;28;20081;-63
2023/08/05 11:03:41;;;;;;;6.40;2.88;;;;;;;;;;5110771;28;20386;-63
2023/08/05 11:06:07;;;;;;;4.07;3.10;;;;;;;;;;5110638;28;20423;-63
2023/08/05 11:08:34;;;;;;;4.28;2.85;;;;;;;;;;5098827;28;20048;-63
2023/08/05 11:11:02;;;;;;;5.55;3.30;;;;;;;;;;5090746;28;20786;-63
2023/08/05 11:13:32;;;;;;;5.60;3.03;;;;;;;;;;5089951;28;20083;-63
2023/08/05 11:16:05;;;;;;;6.10;3.15;;;;;;;;;;5091540;28;20082;-63
2023/08/05 11:18:31;;;;;;;4.40;3.33;;;;;;;;;;5094724;28;20093;-63
2023/08/05 11:20:58;;;;;;;4.88;2.97;;;;;;;;;;5094308;28;20036;-63
2023/08/05 11:23:24;;;;;;;4.80;3.28;;;;;;;;;;5094785;28;20036;-63
2023/08/05 11:25:52;;;;;;;4.38;2.92;;;;;;;;;;5101634;28;20760;-63
2023/08/05 11:28:19;;;;;;;4.40;3.35;;;;;;;;;;5114205;28;20404;-63
2023/08/05 11:30:45;;;;;;;6.25;3.40;;;;;;;;;;5114737;28;20036;-63
2023/08/05 11:33:11;;;;;;;4.95;3.30;;;;;;;;;;5114538;28;20044;-63
2023/08/05 11:35:45;;;;;;;4.50;3.22;;;;;;;;;;5114232;28;20492;-62
2023/08/05 11:38:11;;;;;;;5.80;3.88;;;;;;;;;;5114698;28;20504;-62
2023/08/05 11:40:42;;;;;;;5.10;4.45;;;;;;;;;;5114635;28;20043;-62
2023/08/05 11:43:08;;;;;;;7.18;4.47;;;;;;;;;;5114158;28;20092;-62
2023/08/05 11:45:38;;;;;;;8.40;5.95;;;;;;;;;;5114596;28;20497;-63
2023/08/05 11:48:04;;;;;;;10.90;7.07;;;;;;;;;;5114440;28;20136;-63
2023/08/05 11:50:37;;;;;;;8.60;7.22;;;;;;;;;;5113827;28;20039;-63
2023/08/05 11:53:03;;;;;;;10.77;7.82;;;;;;;;;;5114289;28;20100;-63
2023/08/05 11:55:34;;;;;;;10.18;7.70;;;;;;;;;;5114223;28;20040;-63
2023/08/05 11:58:00;;;;;;;11.30;8.15;;;;;;;;;;5114011;28;20390;-63
2023/08/05 12:00:26;;;;;;;9.98;8.35;;;;;;;;;;5113938;28;20047;-63
2023/08/05 12:02:52;;;;;;;11.32;9.15;;;;;;;;;;5114073;28;20042;-63
2023/08/05 12:05:19;;;;;;;11.90;8.77;;;;;;;;;;5113864;28;20046;-63
2023/08/05 12:07:45;;;;;;;13.43;9.65;;;;;;;;;;5114097;28;20040;-63
2023/08/05 12:10:12;;;;;;;10.25;8.88;;;;;;;;;;5114158;28;20118;-63
2023/08/05 12:12:38;;;;;;;13.68;9.27;;;;;;;;;;5113291;28;20048;-63
2023/08/05 12:15:27;;;;;;;13.18;8.57;;;;;;;;;;5113839;28;20043;-63
2023/08/05 12:17:54;;;;;;;14.35;8.75;;;;;;;;;;5113906;28;20389;-63
2023/08/05 12:20:22;;;;;;;12.30;8.68;;;;;;;;;;5113478;28;20035;-63
2023/08/05 12:22:48;;;;;;;10.45;8.82;;;;;;;;;;5113742;28;20063;-63
2023/08/05 12:25:15;;;;;;;14.20;10.48;;;;;;;;;;5113754;28;20431;-63
2023/08/05 12:27:41;;;;;;;10.98;9.90;;;;;;;;;;5144644;27;20047;-63
2023/08/05 12:30:07;;;;;;;12.77;10.70;;;;;;;;;;5113759;28;20028;-63
2023/08/05 12:32:34;;;;;;;13.65;10.98;;;;;;;;;;5113417;28;20118;-63
2023/08/05 12:35:03;;;;;;;14.90;10.95;;;;;;;;;;5113058;28;20123;-63
2023/08/05 12:37:29;;;;;;;14.05;11.77;;;;;;;;;;5113568;28;20074;-62
2023/08/05 12:39:55;;;;;;;13.48;11.20;;;;;;;;;;5113668;28;20035;-63
2023/08/05 12:42:22;;;;;;;13.52;11.50;;;;;;;;;;5112980;28;20122;-63
2023/08/05 12:44:48;;;;;;;13.85;11.52;;;;;;;;;;5113427;28;20037;-63
2023/08/05 12:47:14;;;;;;;14.55;12.05;;;;;;;;;;5113339;28;20031;-63
2023/08/05 12:49:42;;;;;;;16.98;13.43;;;;;;;;;;5113056;28;20041;-63
2023/08/05 12:52:08;;;;;;;18.73;14.18;;;;;;;;;;5113464;28;20355;-63
2023/08/05 12:54:34;;;;;;;18.27;14.70;;;;;;;;;;5112989;28;20108;-63
2023/08/05 12:57:00;;;;;;;17.02;15.23;;;;;;;;;;5112594;28;20051;-62
2023/08/05 12:59:26;;;;;;;17.45;15.38;;;;;;;;;;5113122;28;20035;-62
2023/08/05 13:01:52;;;;;;;19.27;15.93;;;;;;;;;;5112989;28;20039;-62
2023/08/05 13:04:18;;;;;;;17.85;15.77;;;;;;;;;;5112744;28;20117;-63
2023/08/05 13:06:44;;;;;;;16.75;14.75;;;;;;;;;;5112853;28;20488;-63
2023/08/05 13:09:10;;;;;;;20.13;15.23;;;;;;;;;;5095224;28;20048;-63
2023/08/05 13:11:36;;;;;;;17.15;14.27;;;;;;;;;;5091879;28;20039;-62
2023/08/05 13:14:02;;;;;;;17.80;14.68;;;;;;;;;;5092387;28;20105;-62
2023/08/05 13:16:28;;;;;;;17.95;14.23;;;;;;;;;;5092546;28;20051;-63
2023/08/05 13:18:54;;;;;;;15.70;14.07;;;;;;;;;;5091920;28;20549;-63
2023/08/05 13:21:20;;;;;;;20.52;14.35;;;;;;;;;;5092576;28;20119;-63
2023/08/05 13:23:46;;;;;;;17.83;14.50;;;;;;;;;;5092109;28;20047;-63
2023/08/05 13:26:13;;;;;;;18.38;14.73;;;;;;;;;;5101897;28;20043;-63
2023/08/05 13:28:39;;;;;;;17.00;13.88;;;;;;;;;;5112663;28;20405;-63
2023/08/05 13:31:05;;;;;;;16.77;13.07;;;;;;;;;;5112524;28;20036;-63
2023/08/05 13:33:31;;;;;;;16.60;13.18;;;;;;;;;;5111882;28;20044;-63
2023/08/05 13:35:57;;;;;;;15.82;12.63;;;;;;;;;;5112222;28;20059;-63
2023/08/05 13:38:24;;;;;;;15.18;11.80;;;;;;;;;;5111987;28;20161;-63
2023/08/05 13:40:56;;;;;;;12.25;10.70;;;;;;;;;;5111942;28;20513;-63
2023/08/05 13:43:22;;;;;;;18.35;11.82;;;;;;;;;;5112152;28;20047;-63
2023/08/05 13:45:52;;;;;;;13.48;10.73;;;;;;;;;;5111954;28;20040;-63
2023/08/05 13:48:18;;;;;;;13.98;10.52;;;;;;;;;;5111625;28;20046;-63
2023/08/05 13:50:44;;;;;;;11.45;10.30;;;;;;;;;;5111802;28;20630;-63
2023/08/05 13:53:10;;;;;;;14.10;11.10;;;;;;;;;;5112049;28;20043;-63
2023/08/05 13:55:36;;;;;;;12.85;10.52;;;;;;;;;;5111588;28;20039;-63
2023/08/05 13:58:02;;;;;;;16.20;11.57;;;;;;;;;;5111792;28;20039;-63
2023/08/05 14:00:29;;;;;;;15.82;11.15;;;;;;;;;;5111608;28;20039;-63
2023/08/05 14:02:55;;;;;;;13.68;11.45;;;;;;;;;;5111043;28;20123;-63
2023/08/05 14:05:21;;;;;;;13.35;11.10;;;;;;;;;;5111752;28;20039;-63
2023/08/05 14:07:48;;;;;;;17.55;11.25;;;;;;;;;;5106049;28;20500;-63
2023/08/05 14:10:14;;;;;;;13.85;11.20;;;;;;;;;;5090732;28;20101;-63
2023/08/05 14:12:40;;;;;;;20.05;12.00;;;;;;;;;;5090874;28;20102;-63
2023/08/05 14:15:06;;;;;;;14.57;11.90;;;;;;;;;;5091444;28;20482;-63
2023/08/05 14:17:32;;;;;;;14.52;11.32;;;;;;;;;;5090999;28;20040;-63
2023/08/05 14:19:59;;;;;;;3.92;2.80;;;;;;;;;;5091287;28;20046;-63
2023/08/05 14:22:25;;;;;;;2.20;1.67;;;;;;;;;;5091192;28;20391;-63
2023/08/05 14:24:51;;;;;;;2.33;1.70;;;;;;;;;;5090918;28;20047;-63
2023/08/05 14:27:17;;;;;;;2.10;1.90;;;;;;;;;;5110156;28;20123;-63
2023/08/05 14:29:43;;;;;;;3.30;2.08;;;;;;;;;;5111280;28;20073;-63
2023/08/05 14:32:10;;;;;;;2.67;1.90;;;;;;;;;;5111026;28;20040;-63
2023/08/05 14:34:36;;;;;;;2.55;2.03;;;;;;;;;;5111223;28;20058;-63